sensor_id;sensor_type;location;lat;lon;timestamp;pressure;altitude;pressure_sealevel;temperature;humidity
29909;BME280;36247;51.952;6.146;2023-02-14T00:00:41;103375.72;;;2.81;100.00
29909;BME280;36247;51.952;6.146;2023-02-14T00:03:06;103379.59;;;2.55;100.00
29909;BME280;36247;51.952;6.146;2023-02-14T00:05:31;103383.50;;;2.50;100.00
29909;BME280;36247;51.952;6.146;2023-02-14T00:07:57;103386.78;;;2.47;100.00
29909;BME280;36247;51.952;6.146;2023-02-14T00:10:22;103391.88;;;2.46;100.00
29909;BME280;36247;51.952;6.146;2023-02-14T00:12:47;103380.09;;;2.41;100.00
29909;BME280;36247;51.952;6.146;2023-02-14T00:15:13;103386.63;;;2.46;100.00
29909;BME280;36247;51.952;6.146;2023-02-14T00:17:49;103376.09;;;2.25;100.00
29909;BME280;36247;51.952;6.146;2023-02-14T00:20:15;103382.03;;;2.33;100.00
29909;BME280;36247;51.952;6.146;2023-02-14T00:22:40;103379.47;;;2.43;100.00
29909;BME280;36247;51.952;6.146;2023-02-14T00:25:06;103376.13;;;2.36;100.00
29909;BME280;36247;51.952;6.146;2023-02-14T00:27:31;103373.13;;;2.31;100.00
29909;BME280;36247;51.952;6.146;2023-02-14T00:30:00;103372.84;;;2.28;100.00
29909;BME280;36247;51.952;6.146;2023-02-14T00:32:31;103372.44;;;2.23;100.00
29909;BME280;36247;51.952;6.146;2023-02-14T00:34:57;103369.31;;;2.17;100.00
29909;BME280;36247;51.952;6.146;2023-02-14T00:37:22;103369.56;;;2.20;100.00
29909;BME280;36247;51.952;6.146;2023-02-14T00:39:48;103373.63;;;2.17;100.00
29909;BME280;36247;51.952;6.146;2023-02-14T00:42:14;103366.31;;;2.23;100.00
29909;BME280;36247;51.952;6.146;2023-02-14T00:44:40;103370.47;;;2.21;100.00
29909;BME280;36247;51.952;6.146;2023-02-14T00:47:06;103368.00;;;2.12;100.00
29909;BME280;36247;51.952;6.146;2023-02-14T00:49:31;103366.38;;;2.04;100.00
29909;BME280;36247;51.952;6.146;2023-02-14T00:51:57;103368.75;;;1.82;100.00
29909;BME280;36247;51.952;6.146;2023-02-14T00:54:23;103369.31;;;1.88;100.00
29909;BME280;36247;51.952;6.146;2023-02-14T00:56:49;103369.16;;;1.86;100.00
29909;BME280;36247;51.952;6.146;2023-02-14T00:59:14;103371.97;;;1.69;100.00
29909;BME280;36247;51.952;6.146;2023-02-14T01:01:40;103374.72;;;1.70;100.00
29909;BME280;36247;51.952;6.146;2023-02-14T01:04:07;103375.63;;;1.71;100.00
29909;BME280;36247;51.952;6.146;2023-02-14T01:06:33;103376.59;;;1.82;100.00
29909;BME280;36247;51.952;6.146;2023-02-14T01:08:58;103379.63;;;1.86;100.00
29909;BME280;36247;51.952;6.146;2023-02-14T01:11:24;103380.09;;;1.72;100.00
29909;BME280;36247;51.952;6.146;2023-02-14T01:13:54;103374.63;;;1.79;100.00
29909;BME280;36247;51.952;6.146;2023-02-14T01:16:22;103370.38;;;1.90;100.00
29909;BME280;36247;51.952;6.146;2023-02-14T01:18:48;103366.56;;;1.86;100.00
29909;BME280;36247;51.952;6.146;2023-02-14T01:21:26;103365.50;;;1.84;100.00
29909;BME280;36247;51.952;6.146;2023-02-14T01:23:56;103364.47;;;1.82;100.00
29909;BME280;36247;51.952;6.146;2023-02-14T01:26:22;103376.94;;;1.66;100.00
29909;BME280;36247;51.952;6.146;2023-02-14T01:28:48;103370.91;;;1.67;100.00
29909;BME280;36247;51.952;6.146;2023-02-14T01:31:20;103366.63;;;1.48;100.00
29909;BME280;36247;51.952;6.146;2023-02-14T01:33:47;103371.28;;;1.42;100.00
29909;BME280;36247;51.952;6.146;2023-02-14T01:36:23;103357.22;;;1.31;100.00
29909;BME280;36247;51.952;6.146;2023-02-14T01:38:55;103365.06;;;1.31;100.00
29909;BME280;36247;51.952;6.146;2023-02-14T01:41:23;103379.53;;;1.09;100.00
29909;BME280;36247;51.952;6.146;2023-02-14T01:46:32;103372.81;;;1.02;100.00
29909;BME280;36247;51.952;6.146;2023-02-14T01:49:15;103372.16;;;1.04;100.00
29909;BME280;36247;51.952;6.146;2023-02-14T01:51:53;103370.31;;;1.12;100.00
29909;BME280;36247;51.952;6.146;2023-02-14T01:54:23;103371.16;;;1.21;100.00
29909;BME280;36247;51.952;6.146;2023-02-14T01:56:54;103364.56;;;1.16;100.00
29909;BME280;36247;51.952;6.146;2023-02-14T01:59:24;103365.50;;;1.17;100.00
29909;BME280;36247;51.952;6.146;2023-02-14T02:01:51;103372.41;;;1.16;100.00
29909;BME280;36247;51.952;6.146;2023-02-14T02:04:38;103372.16;;;1.04;100.00
29909;BME280;36247;51.952;6.146;2023-02-14T02:07:09;103366.19;;;1.05;100.00
29909;BME280;36247;51.952;6.146;2023-02-14T02:09:45;103372.78;;;0.83;100.00
29909;BME280;36247;51.952;6.146;2023-02-14T02:12:12;103367.41;;;0.81;100.00
29909;BME280;36247;51.952;6.146;2023-02-14T02:14:37;103366.28;;;0.88;100.00
29909;BME280;36247;51.952;6.146;2023-02-14T02:25:55;103359.06;;;0.94;100.00
29909;BME280;36247;51.952;6.146;2023-02-14T02:37:06;103347.25;;;0.89;100.00
29909;BME280;36247;51.952;6.146;2023-02-14T02:39:43;103339.50;;;0.99;100.00
29909;BME280;36247;51.952;6.146;2023-02-14T02:45:17;103337.03;;;1.01;100.00
29909;BME280;36247;51.952;6.146;2023-02-14T02:48:14;103333.16;;;0.87;100.00
29909;BME280;36247;51.952;6.146;2023-02-14T02:50:46;103337.28;;;0.85;100.00
29909;BME280;36247;51.952;6.146;2023-02-14T02:53:40;103335.06;;;0.79;100.00
29909;BME280;36247;51.952;6.146;2023-02-14T02:56:13;103332.16;;;0.76;100.00
29909;BME280;36247;51.952;6.146;2023-02-14T03:02:06;103344.41;;;0.77;100.00
29909;BME280;36247;51.952;6.146;2023-02-14T03:04:37;103340.69;;;0.56;100.00
29909;BME280;36247;51.952;6.146;2023-02-14T03:07:20;103344.91;;;0.45;100.00
29909;BME280;36247;51.952;6.146;2023-02-14T03:10:24;103341.75;;;0.58;100.00
29909;BME280;36247;51.952;6.146;2023-02-14T03:18:40;103343.84;;;0.71;100.00
29909;BME280;36247;51.952;6.146;2023-02-14T03:27:05;103342.78;;;0.88;100.00
29909;BME280;36247;51.952;6.146;2023-02-14T03:29:41;103334.50;;;0.92;100.00
29909;BME280;36247;51.952;6.146;2023-02-14T03:32:20;103328.31;;;1.00;100.00
29909;BME280;36247;51.952;6.146;2023-02-14T03:34:58;103334.97;;;0.69;100.00
29909;BME280;36247;51.952;6.146;2023-02-14T03:37:29;103329.38;;;0.56;100.00
29909;BME280;36247;51.952;6.146;2023-02-14T03:40:10;103334.72;;;0.57;100.00
29909;BME280;36247;51.952;6.146;2023-02-14T03:42:42;103332.16;;;0.76;100.00
29909;BME280;36247;51.952;6.146;2023-02-14T03:45:15;103333.63;;;0.55;100.00
29909;BME280;36247;51.952;6.146;2023-02-14T03:47:43;103343.22;;;0.46;100.00
29909;BME280;36247;51.952;6.146;2023-02-14T03:50:14;103328.94;;;0.51;100.00
29909;BME280;36247;51.952;6.146;2023-02-14T03:52:42;103338.00;;;0.46;100.00
29909;BME280;36247;51.952;6.146;2023-02-14T03:55:09;103330.28;;;0.56;100.00
29909;BME280;36247;51.952;6.146;2023-02-14T03:57:49;103328.50;;;0.46;100.00
29909;BME280;36247;51.952;6.146;2023-02-14T04:00:17;103331.25;;;0.48;100.00
29909;BME280;36247;51.952;6.146;2023-02-14T04:02:49;103339.69;;;0.45;100.00
29909;BME280;36247;51.952;6.146;2023-02-14T04:05:22;103333.94;;;0.30;100.00
29909;BME280;36247;51.952;6.146;2023-02-14T04:07:51;103333.00;;;0.30;100.00
29909;BME280;36247;51.952;6.146;2023-02-14T04:10:17;103331.94;;;0.28;100.00
29909;BME280;36247;51.952;6.146;2023-02-14T04:12:43;103333.09;;;0.12;100.00
29909;BME280;36247;51.952;6.146;2023-02-14T04:15:09;103339.19;;;0.22;100.00
29909;BME280;36247;51.952;6.146;2023-02-14T04:17:35;103342.66;;;0.31;100.00
29909;BME280;36247;51.952;6.146;2023-02-14T04:20:20;103339.88;;;0.38;100.00
29909;BME280;36247;51.952;6.146;2023-02-14T04:22:46;103336.22;;;0.36;100.00
29909;BME280;36247;51.952;6.146;2023-02-14T04:25:12;103342.38;;;0.28;100.00
29909;BME280;36247;51.952;6.146;2023-02-14T04:27:38;103347.63;;;0.19;100.00
29909;BME280;36247;51.952;6.146;2023-02-14T04:30:03;103337.16;;;0.28;100.00
29909;BME280;36247;51.952;6.146;2023-02-14T04:32:29;103347.72;;;0.29;100.00
29909;BME280;36247;51.952;6.146;2023-02-14T04:34:54;103343.69;;;0.42;100.00
29909;BME280;36247;51.952;6.146;2023-02-14T04:37:20;103342.38;;;0.28;100.00
29909;BME280;36247;51.952;6.146;2023-02-14T04:39:45;103342.25;;;0.17;100.00
29909;BME280;36247;51.952;6.146;2023-02-14T04:42:11;103342.53;;;0.21;100.00
29909;BME280;36247;51.952;6.146;2023-02-14T04:44:36;103336.25;;;0.27;100.00
29909;BME280;36247;51.952;6.146;2023-02-14T04:47:03;103340.06;;;0.31;100.00
29909;BME280;36247;51.952;6.146;2023-02-14T04:49:29;103336.25;;;0.27;100.00
29909;BME280;36247;51.952;6.146;2023-02-14T04:51:54;103327.84;;;0.21;100.00
29909;BME280;36247;51.952;6.146;2023-02-14T04:54:20;103331.19;;;0.29;100.00
29909;BME280;36247;51.952;6.146;2023-02-14T04:56:46;103328.41;;;0.36;100.00
29909;BME280;36247;51.952;6.146;2023-02-14T04:59:11;103324.38;;;0.40;100.00
29909;BME280;36247;51.952;6.146;2023-02-14T05:01:37;103325.81;;;0.27;100.00
29909;BME280;36247;51.952;6.146;2023-02-14T05:04:02;103324.94;;;0.18;100.00
29909;BME280;36247;51.952;6.146;2023-02-14T05:06:27;103316.06;;;0.07;100.00
29909;BME280;36247;51.952;6.146;2023-02-14T05:08:54;103321.84;;;0.22;100.00
29909;BME280;36247;51.952;6.146;2023-02-14T05:11:21;103313.69;;;0.28;100.00
29909;BME280;36247;51.952;6.146;2023-02-14T05:13:46;103312.13;;;0.30;100.00
29909;BME280;36247;51.952;6.146;2023-02-14T05:16:12;103311.09;;;0.28;100.00
29909;BME280;36247;51.952;6.146;2023-02-14T05:18:37;103311.84;;;0.27;100.00
29909;BME280;36247;51.952;6.146;2023-02-14T05:21:03;103309.53;;;0.30;100.00
29909;BME280;36247;51.952;6.146;2023-02-14T05:23:28;103306.84;;;0.20;100.00
29909;BME280;36247;51.952;6.146;2023-02-14T05:25:53;103302.81;;;0.23;100.00
29909;BME280;36247;51.952;6.146;2023-02-14T05:28:19;103305.47;;;0.14;100.00
29909;BME280;36247;51.952;6.146;2023-02-14T05:30:44;103296.28;;;0.18;100.00
29909;BME280;36247;51.952;6.146;2023-02-14T05:33:10;103295.81;;;0.13;100.00
29909;BME280;36247;51.952;6.146;2023-02-14T05:35:35;103292.97;;;0.02;100.00
29909;BME280;36247;51.952;6.146;2023-02-14T05:38:01;103294.81;;;-0.06;100.00
29909;BME280;36247;51.952;6.146;2023-02-14T05:40:26;103299.84;;;0.01;100.00
29909;BME280;36247;51.952;6.146;2023-02-14T05:42:53;103299.41;;;-0.04;100.00
29909;BME280;36247;51.952;6.146;2023-02-14T05:45:18;103296.22;;;-0.10;100.00
29909;BME280;36247;51.952;6.146;2023-02-14T05:47:44;103302.88;;;0.06;100.00
29909;BME280;36247;51.952;6.146;2023-02-14T05:50:10;103296.44;;;0.11;100.00
29909;BME280;36247;51.952;6.146;2023-02-14T05:52:36;103296.63;;;0.04;100.00
29909;BME280;36247;51.952;6.146;2023-02-14T05:55:02;103294.03;;;0.04;100.00
29909;BME280;36247;51.952;6.146;2023-02-14T05:57:27;103293.75;;;-0.08;100.00
29909;BME280;36247;51.952;6.146;2023-02-14T05:59:53;103301.75;;;-0.15;100.00
29909;BME280;36247;51.952;6.146;2023-02-14T06:02:18;103295.19;;;-0.21;100.00
29909;BME280;36247;51.952;6.146;2023-02-14T06:04:44;103299.31;;;-0.23;100.00
29909;BME280;36247;51.952;6.146;2023-02-14T06:07:09;103292.13;;;-0.25;100.00
29909;BME280;36247;51.952;6.146;2023-02-14T06:09:35;103299.94;;;-0.25;100.00
29909;BME280;36247;51.952;6.146;2023-02-14T06:12:00;103295.66;;;-0.25;100.00
29909;BME280;36247;51.952;6.146;2023-02-14T06:14:25;103295.34;;;-0.28;100.00
29909;BME280;36247;51.952;6.146;2023-02-14T06:16:51;103300.72;;;-0.26;100.00
29909;BME280;36247;51.952;6.146;2023-02-14T06:19:17;103304.72;;;-0.30;100.00
29909;BME280;36247;51.952;6.146;2023-02-14T06:21:42;103304.97;;;-0.18;100.00
29909;BME280;36247;51.952;6.146;2023-02-14T06:24:07;103306.78;;;-0.08;100.00
29909;BME280;36247;51.952;6.146;2023-02-14T06:26:33;103303.28;;;-0.09;100.00
29909;BME280;36247;51.952;6.146;2023-02-14T06:29:00;103304.66;;;-0.21;100.00
29909;BME280;36247;51.952;6.146;2023-02-14T06:31:26;103308.66;;;-0.16;100.00
29909;BME280;36247;51.952;6.146;2023-02-14T06:33:52;103309.69;;;-0.05;100.00
29909;BME280;36247;51.952;6.146;2023-02-14T06:36:18;103312.44;;;-0.04;100.00
29909;BME280;36247;51.952;6.146;2023-02-14T06:38:43;103319.84;;;-0.17;100.00
29909;BME280;36247;51.952;6.146;2023-02-14T06:41:10;103327.75;;;0.02;100.00
29909;BME280;36247;51.952;6.146;2023-02-14T06:43:36;103317.78;;;-0.02;100.00
29909;BME280;36247;51.952;6.146;2023-02-14T06:46:02;103323.28;;;0.10;100.00
29909;BME280;36247;51.952;6.146;2023-02-14T06:48:28;103319.72;;;0.18;100.00
29909;BME280;36247;51.952;6.146;2023-02-14T06:50:53;103324.47;;;0.13;100.00
29909;BME280;36247;51.952;6.146;2023-02-14T06:53:19;103321.88;;;0.13;100.00
29909;BME280;36247;51.952;6.146;2023-02-14T06:55:45;103329.34;;;0.28;100.00
29909;BME280;36247;51.952;6.146;2023-02-14T06:58:11;103324.81;;;0.16;100.00
29909;BME280;36247;51.952;6.146;2023-02-14T07:00:36;103328.47;;;0.19;100.00
29909;BME280;36247;51.952;6.146;2023-02-14T07:03:04;103330.47;;;0.12;100.00
29909;BME280;36247;51.952;6.146;2023-02-14T07:05:30;103321.69;;;0.21;100.00
29909;BME280;36247;51.952;6.146;2023-02-14T07:07:56;103333.13;;;-0.05;100.00
29909;BME280;36247;51.952;6.146;2023-02-14T07:10:22;103331.06;;;-0.27;100.00
29909;BME280;36247;51.952;6.146;2023-02-14T07:12:47;103340.34;;;-0.03;100.00
29909;BME280;36247;51.952;6.146;2023-02-14T07:15:13;103339.66;;;0.09;100.00
29909;BME280;36247;51.952;6.146;2023-02-14T07:17:39;103334.31;;;0.07;100.00
29909;BME280;36247;51.952;6.146;2023-02-14T07:20:06;103333.06;;;0.21;100.00
29909;BME280;36247;51.952;6.146;2023-02-14T07:22:32;103341.34;;;0.45;100.00
29909;BME280;36247;51.952;6.146;2023-02-14T07:24:58;103339.69;;;0.45;100.00
29909;BME280;36247;51.952;6.146;2023-02-14T07:27:24;103336.69;;;0.60;100.00
29909;BME280;36247;51.952;6.146;2023-02-14T07:29:49;103328.75;;;0.77;100.00
29909;BME280;36247;51.952;6.146;2023-02-14T07:32:15;103332.59;;;1.00;100.00
29909;BME280;36247;51.952;6.146;2023-02-14T07:34:40;103340.00;;;0.76;100.00
29909;BME280;36247;51.952;6.146;2023-02-14T07:37:06;103337.72;;;0.90;100.00
29909;BME280;36247;51.952;6.146;2023-02-14T07:39:31;103329.44;;;1.13;100.00
29909;BME280;36247;51.952;6.146;2023-02-14T07:41:57;103337.53;;;1.16;100.00
29909;BME280;36247;51.952;6.146;2023-02-14T07:44:25;103340.22;;;1.07;100.00
29909;BME280;36247;51.952;6.146;2023-02-14T07:46:50;103347.75;;;1.04;100.00
29909;BME280;36247;51.952;6.146;2023-02-14T07:49:16;103335.94;;;1.08;100.00
29909;BME280;36247;51.952;6.146;2023-02-14T07:51:41;103338.69;;;1.09;100.00
29909;BME280;36247;51.952;6.146;2023-02-14T07:54:06;103336.78;;;1.17;100.00
29909;BME280;36247;51.952;6.146;2023-02-14T07:56:32;103340.72;;;1.41;100.00
29909;BME280;36247;51.952;6.146;2023-02-14T07:58:57;103346.91;;;1.33;100.00
29909;BME280;36247;51.952;6.146;2023-02-14T08:01:23;103340.22;;;1.45;100.00
29909;BME280;36247;51.952;6.146;2023-02-14T08:03:48;103344.00;;;1.68;100.00
29909;BME280;36247;51.952;6.146;2023-02-14T08:06:16;103328.69;;;1.91;100.00
29909;BME280;36247;51.952;6.146;2023-02-14T08:08:41;103339.25;;;2.33;100.00
29909;BME280;36247;51.952;6.146;2023-02-14T08:11:07;103331.44;;;2.53;100.00
29909;BME280;36247;51.952;6.146;2023-02-14T08:13:32;103324.78;;;2.77;100.00
29909;BME280;36247;51.952;6.146;2023-02-14T08:15:58;103326.63;;;2.68;100.00
29909;BME280;36247;51.952;6.146;2023-02-14T08:18:34;103319.94;;;2.92;100.00
29909;BME280;36247;51.952;6.146;2023-02-14T08:21:00;103322.81;;;2.95;100.00
29909;BME280;36247;51.952;6.146;2023-02-14T08:23:25;103318.63;;;2.87;100.00
29909;BME280;36247;51.952;6.146;2023-02-14T08:25:51;103308.53;;;3.12;100.00
29909;BME280;36247;51.952;6.146;2023-02-14T08:28:17;103309.91;;;3.40;100.00
29909;BME280;36247;51.952;6.146;2023-02-14T08:30:43;103308.50;;;3.65;100.00
29909;BME280;36247;51.952;6.146;2023-02-14T08:33:09;103305.09;;;3.99;100.00
29909;BME280;36247;51.952;6.146;2023-02-14T08:35:35;103320.03;;;4.22;100.00
29909;BME280;36247;51.952;6.146;2023-02-14T08:38:01;103309.84;;;4.37;100.00
29909;BME280;36247;51.952;6.146;2023-02-14T08:40:27;103299.00;;;4.66;100.00
29909;BME280;36247;51.952;6.146;2023-02-14T08:42:52;103304.69;;;4.94;100.00
29909;BME280;36247;51.952;6.146;2023-02-14T08:45:18;103301.00;;;5.04;100.00
29909;BME280;36247;51.952;6.146;2023-02-14T08:47:44;103300.47;;;5.20;100.00
29909;BME280;36247;51.952;6.146;2023-02-14T08:50:14;103303.88;;;5.19;100.00
29909;BME280;36247;51.952;6.146;2023-02-14T08:52:41;103305.63;;;5.30;100.00
29909;BME280;36247;51.952;6.146;2023-02-14T08:55:08;103301.50;;;5.34;100.00
29909;BME280;36247;51.952;6.146;2023-02-14T08:57:34;103307.09;;;5.62;100.00
29909;BME280;36247;51.952;6.146;2023-02-14T08:59:59;103307.06;;;5.86;100.00
29909;BME280;36247;51.952;6.146;2023-02-14T09:02:24;103305.69;;;5.91;100.00
29909;BME280;36247;51.952;6.146;2023-02-14T09:04:50;103303.19;;;5.93;100.00
29909;BME280;36247;51.952;6.146;2023-02-14T09:07:15;103297.81;;;5.79;100.00
29909;BME280;36247;51.952;6.146;2023-02-14T09:09:41;103301.25;;;6.02;100.00
29909;BME280;36247;51.952;6.146;2023-02-14T09:12:07;103295.00;;;6.13;100.00
29909;BME280;36247;51.952;6.146;2023-02-14T09:14:38;103291.81;;;6.43;100.00
29909;BME280;36247;51.952;6.146;2023-02-14T09:17:05;103291.00;;;6.69;100.00
29909;BME280;36247;51.952;6.146;2023-02-14T09:19:34;103291.75;;;6.80;100.00
29909;BME280;36247;51.952;6.146;2023-02-14T09:22:01;103289.34;;;6.58;100.00
29909;BME280;36247;51.952;6.146;2023-02-14T09:24:30;103286.72;;;6.58;100.00
29909;BME280;36247;51.952;6.146;2023-02-14T09:26:56;103282.91;;;6.66;100.00
29909;BME280;36247;51.952;6.146;2023-02-14T09:29:23;103290.19;;;6.70;100.00
29909;BME280;36247;51.952;6.146;2023-02-14T09:31:51;103287.28;;;6.53;100.00
29909;BME280;36247;51.952;6.146;2023-02-14T09:34:17;103287.59;;;6.83;100.00
29909;BME280;36247;51.952;6.146;2023-02-14T09:36:42;103283.81;;;7.18;100.00
29909;BME280;36247;51.952;6.146;2023-02-14T09:39:07;103280.97;;;7.15;100.00
29909;BME280;36247;51.952;6.146;2023-02-14T09:44:39;103274.06;;;7.31;100.00
29909;BME280;36247;51.952;6.146;2023-02-14T09:48:00;103271.94;;;7.25;100.00
29909;BME280;36247;51.952;6.146;2023-02-14T09:50:03;103266.75;;;7.27;100.00
29909;BME280;36247;51.952;6.146;2023-02-14T09:52:30;103271.44;;;7.44;100.00
29909;BME280;36247;51.952;6.146;2023-02-14T09:54:59;103274.53;;;7.79;100.00
29909;BME280;36247;51.952;6.146;2023-02-14T09:57:35;103267.84;;;8.12;100.00
29909;BME280;36247;51.952;6.146;2023-02-14T10:03:45;103268.88;;;8.14;100.00
29909;BME280;36247;51.952;6.146;2023-02-14T10:08:52;103265.09;;;8.82;100.00
29909;BME280;36247;51.952;6.146;2023-02-14T10:11:22;103263.38;;;8.82;100.00
29909;BME280;36247;51.952;6.146;2023-02-14T10:19:22;103255.66;;;9.47;100.00
29909;BME280;36247;51.952;6.146;2023-02-14T10:21:58;103254.72;;;9.78;100.00
29909;BME280;36247;51.952;6.146;2023-02-14T10:24:35;103252.13;;;9.63;100.00
29909;BME280;36247;51.952;6.146;2023-02-14T10:27:33;103259.50;;;9.68;100.00
29909;BME280;36247;51.952;6.146;2023-02-14T10:29:59;103262.31;;;9.71;100.00
29909;BME280;36247;51.952;6.146;2023-02-14T10:32:40;103248.50;;;11.10;100.00
29909;BME280;36247;51.952;6.146;2023-02-14T10:35:32;103236.69;;;11.95;100.00
29909;BME280;36247;51.952;6.146;2023-02-14T10:40:48;103241.59;;;13.28;100.00
29909;BME280;36247;51.952;6.146;2023-02-14T10:51:45;103234.47;;;13.49;100.00
29909;BME280;36247;51.952;6.146;2023-02-14T10:54:18;103238.38;;;13.57;100.00
29909;BME280;36247;51.952;6.146;2023-02-14T10:57:01;103245.16;;;13.07;100.00
29909;BME280;36247;51.952;6.146;2023-02-14T11:02:16;103232.69;;;14.92;100.00
29909;BME280;36247;51.952;6.146;2023-02-14T11:04:44;103227.75;;;14.53;100.00
29909;BME280;36247;51.952;6.146;2023-02-14T11:07:13;103222.19;;;15.25;100.00
29909;BME280;36247;51.952;6.146;2023-02-14T11:09:39;103220.34;;;15.50;97.35
29909;BME280;36247;51.952;6.146;2023-02-14T11:12:05;103216.31;;;15.08;100.00
29909;BME280;36247;51.952;6.146;2023-02-14T11:14:34;103216.06;;;15.57;97.38
29909;BME280;36247;51.952;6.146;2023-02-14T11:20:00;103200.59;;;16.36;89.17
29909;BME280;36247;51.952;6.146;2023-02-14T11:22:34;103211.75;;;15.60;89.47
29909;BME280;36247;51.952;6.146;2023-02-14T11:25:25;103195.41;;;16.75;83.13
29909;BME280;36247;51.952;6.146;2023-02-14T11:28:04;103198.16;;;17.14;82.58
29909;BME280;36247;51.952;6.146;2023-02-14T11:30:35;103196.69;;;16.88;77.52
29909;BME280;36247;51.952;6.146;2023-02-14T11:33:03;103198.59;;;16.27;82.31
29909;BME280;36247;51.952;6.146;2023-02-14T11:35:30;103193.97;;;16.55;81.52
29909;BME280;36247;51.952;6.146;2023-02-14T11:38:05;103188.25;;;17.09;82.79
29909;BME280;36247;51.952;6.146;2023-02-14T11:40:34;103183.00;;;17.54;73.91
29909;BME280;36247;51.952;6.146;2023-02-14T11:43:17;103183.09;;;17.57;77.35
29909;BME280;36247;51.952;6.146;2023-02-14T11:45:44;103183.66;;;18.26;71.07
29909;BME280;36247;51.952;6.146;2023-02-14T11:50:43;103188.69;;;16.58;70.18
29909;BME280;36247;51.952;6.146;2023-02-14T11:53:22;103177.56;;;17.49;69.43
29909;BME280;36247;51.952;6.146;2023-02-14T11:55:53;103170.78;;;16.89;68.16
29909;BME280;36247;51.952;6.146;2023-02-14T11:58:33;103172.22;;;17.51;68.21
29909;BME280;36247;51.952;6.146;2023-02-14T12:01:00;103168.31;;;17.76;65.67
29909;BME280;36247;51.952;6.146;2023-02-14T12:03:28;103168.91;;;18.02;62.18
29909;BME280;36247;51.952;6.146;2023-02-14T12:05:59;103163.00;;;17.79;61.73
29909;BME280;36247;51.952;6.146;2023-02-14T12:08:29;103154.38;;;17.92;63.98
29909;BME280;36247;51.952;6.146;2023-02-14T12:11:24;103155.81;;;18.21;63.96
29909;BME280;36247;51.952;6.146;2023-02-14T12:13:56;103147.84;;;18.25;63.23
29909;BME280;36247;51.952;6.146;2023-02-14T12:16:31;103149.94;;;18.42;59.70
29909;BME280;36247;51.952;6.146;2023-02-14T12:19:02;103143.03;;;18.55;62.09
29909;BME280;36247;51.952;6.146;2023-02-14T12:24:13;103129.13;;;17.83;60.88
29909;BME280;36247;51.952;6.146;2023-02-14T12:26:44;103125.63;;;17.87;61.11
29909;BME280;36247;51.952;6.146;2023-02-14T12:29:22;103122.00;;;18.29;60.25
29909;BME280;36247;51.952;6.146;2023-02-14T12:31:51;103120.56;;;17.99;59.86
29909;BME280;36247;51.952;6.146;2023-02-14T12:34:18;103113.94;;;17.40;62.92
29909;BME280;36247;51.952;6.146;2023-02-14T12:37:08;103113.47;;;17.19;65.57
29909;BME280;36247;51.952;6.146;2023-02-14T12:39:39;103108.16;;;16.47;66.82
29909;BME280;36247;51.952;6.146;2023-02-14T12:51:05;103094.59;;;16.06;80.63
29909;BME280;36247;51.952;6.146;2023-02-14T12:53:45;103102.88;;;16.15;77.89
29909;BME280;36247;51.952;6.146;2023-02-14T13:01:28;103090.50;;;15.26;84.75
29909;BME280;36247;51.952;6.146;2023-02-14T13:06:54;103092.47;;;14.76;86.27
29909;BME280;36247;51.952;6.146;2023-02-14T13:12:33;103071.13;;;15.05;82.41
29909;BME280;36247;51.952;6.146;2023-02-14T13:15:20;103073.16;;;14.83;89.21
29909;BME280;36247;51.952;6.146;2023-02-14T13:21:02;103065.47;;;14.65;90.84
29909;BME280;36247;51.952;6.146;2023-02-14T13:23:42;103064.50;;;14.63;89.99
29909;BME280;36247;51.952;6.146;2023-02-14T13:26:13;103058.53;;;14.99;89.24
29909;BME280;36247;51.952;6.146;2023-02-14T13:28:48;103054.94;;;14.98;99.17
29909;BME280;36247;51.952;6.146;2023-02-14T13:31:14;103054.22;;;15.34;91.00
29909;BME280;36247;51.952;6.146;2023-02-14T13:33:43;103052.97;;;15.52;87.78
29909;BME280;36247;51.952;6.146;2023-02-14T13:36:13;103046.13;;;15.62;83.95
29909;BME280;36247;51.952;6.146;2023-02-14T13:38:43;103035.41;;;15.92;92.92
29909;BME280;36247;51.952;6.146;2023-02-14T13:41:11;103038.66;;;16.14;81.28
29909;BME280;36247;51.952;6.146;2023-02-14T13:43:56;103034.84;;;15.72;82.07
29909;BME280;36247;51.952;6.146;2023-02-14T13:49:32;103030.44;;;16.08;86.54
29909;BME280;36247;51.952;6.146;2023-02-14T13:52:00;103026.22;;;16.89;83.82
29909;BME280;36247;51.952;6.146;2023-02-14T13:54:43;103028.69;;;17.21;74.14
29909;BME280;36247;51.952;6.146;2023-02-14T13:57:31;103021.69;;;17.27;73.02
29909;BME280;36247;51.952;6.146;2023-02-14T14:02:54;103017.22;;;18.21;71.83
29909;BME280;36247;51.952;6.146;2023-02-14T14:10:55;103008.94;;;20.10;59.11
29909;BME280;36247;51.952;6.146;2023-02-14T14:18:57;103005.34;;;20.11;54.51
29909;BME280;36247;51.952;6.146;2023-02-14T14:24:21;102995.88;;;20.62;52.46
29909;BME280;36247;51.952;6.146;2023-02-14T14:26:50;102996.47;;;20.22;53.75
29909;BME280;36247;51.952;6.146;2023-02-14T14:31:51;102996.16;;;21.10;52.91
29909;BME280;36247;51.952;6.146;2023-02-14T14:34:27;103002.00;;;20.38;52.26
29909;BME280;36247;51.952;6.146;2023-02-14T14:37:06;102988.09;;;21.21;53.39
29909;BME280;36247;51.952;6.146;2023-02-14T14:39:33;102989.06;;;21.34;51.38
29909;BME280;36247;51.952;6.146;2023-02-14T14:42:12;102985.44;;;21.31;52.50
29909;BME280;36247;51.952;6.146;2023-02-14T14:44:47;102988.97;;;21.12;51.54
29909;BME280;36247;51.952;6.146;2023-02-14T14:47:21;102981.84;;;19.91;51.02
29909;BME280;36247;51.952;6.146;2023-02-14T14:49:50;102981.44;;;19.54;52.22
29909;BME280;36247;51.952;6.146;2023-02-14T14:52:28;102984.59;;;19.96;52.93
29909;BME280;36247;51.952;6.146;2023-02-14T14:54:54;102978.00;;;20.76;53.72
29909;BME280;36247;51.952;6.146;2023-02-14T14:57:20;102978.72;;;20.51;52.23
29909;BME280;36247;51.952;6.146;2023-02-14T14:59:46;102982.75;;;21.36;52.81